KAOO

Altoona-Blair County Airport

Altoona, Pennsylvania, USA
METAR KAOO 261253Z AUTO 23008KT 10SM CLR 23/18 A2993 RMK AO2 SLP121 T02330183
Observed Flight Rules
May-26 @ 12:53 UTC (31 minutes ago) Visual Flight Rules
Wind Visibility Clouds
230° at 8 knots 10 miles
  • Clear skies
Temperatures Readings
Current 23°C / 73°F
Dewpoint 18°C / 64°F
Humidity 74%
Altimeter 29.93" Hg
Pressure 1012.1 hPa
Elevation 455
METAR KAOO 261253Z AUTO 23008KT 10SM CLR 23/18 A2993 RMK AO2 SLP121 T02330183
Observed Flight Rules
May-26 @ 12:53 UTC
(31 minutes ago)
VFR
Wind Visibility
230° at 8 knots 10 miles
Clouds
  • Clear skies
Temperature Dewpoint
23°C / 73°F 18°C / 64°F
Humidity Altimeter Pressure
74% 29.93" Hg 1012.1 hPa